EGPU - Tiree
Distance from station: E 5mi, 14km
Updated: 07/16/2018 12:50pm
Few Clouds
Few Clouds
 Wind from SSW
Wind: SSW 8 mph , 13 km/h
Temperature: 57°F , 14°C
Dew Point: 54°F , 12°C
Humidity: 88%
Barometer: 29.85 inHg , 1011 hPa
Clouds: Few Clouds
Visibility: 6 miles , 10 km
Cloud details: Few Clouds 2000 ft
2018/07/16 19:50 EGPU 161950Z AUTO 20007KT 9999 FEW020/// 14/12 Q1011